createdAt,value
2022-10-05T00:02:26.941Z,90.19
2022-10-05T00:04:56.229Z,90.12
2022-10-05T00:07:24.974Z,90.53
2022-10-05T00:09:56.378Z,91.35
2022-10-05T00:12:24.003Z,90.71
2022-10-05T00:14:53.508Z,90.97
2022-10-05T00:17:25.177Z,90.58
2022-10-05T00:19:53.833Z,90.23
2022-10-05T00:22:28.915Z,88.88
2022-10-05T00:24:57.960Z,87.67
2022-10-05T00:27:26.225Z,87.37
2022-10-05T00:29:57.734Z,87.40
2022-10-05T00:32:27.020Z,87.48
2022-10-05T00:34:54.785Z,87.00
2022-10-05T00:37:21.957Z,86.85
2022-10-05T00:39:49.605Z,86.44
2022-10-05T00:42:16.708Z,86.89
2022-10-05T00:44:54.545Z,87.09
2022-10-05T00:47:27.818Z,88.16
2022-10-05T00:50:06.970Z,89.75
2022-10-05T00:52:34.037Z,88.88
2022-10-05T00:55:20.179Z,88.29
2022-10-05T00:57:47.502Z,89.06
2022-10-05T01:00:17.392Z,88.40
2022-10-05T01:02:56.258Z,88.30
2022-10-05T01:05:23.404Z,87.90
2022-10-05T01:08:04.223Z,87.40
2022-10-05T01:10:42.832Z,86.00
2022-10-05T01:13:15.787Z,85.31
2022-10-05T01:15:46.175Z,84.04
2022-10-05T01:18:27.768Z,83.36
2022-10-05T01:20:59.740Z,83.61
2022-10-05T01:23:40.299Z,83.05
2022-10-05T01:26:33.941Z,82.41
2022-10-05T01:29:13.338Z,82.66
2022-10-05T01:31:49.753Z,82.77
2022-10-05T01:34:19.886Z,82.97
2022-10-05T01:36:56.793Z,83.36
2022-10-05T01:39:30.016Z,82.60
2022-10-05T01:41:57.225Z,82.63
2022-10-05T01:44:29.549Z,82.66
2022-10-05T01:47:03.251Z,82.85
2022-10-05T01:49:33.815Z,82.24
2022-10-05T01:52:13.221Z,81.62
2022-10-05T01:55:01.937Z,81.23
2022-10-05T01:57:29.017Z,81.59
2022-10-05T02:00:07.748Z,81.92
2022-10-05T02:02:56.057Z,82.43
2022-10-05T02:05:26.445Z,82.21
2022-10-05T02:07:57.566Z,82.15
2022-10-05T02:10:32.817Z,82.44
2022-10-05T02:13:20.373Z,82.86
2022-10-05T02:16:11.207Z,83.18
2022-10-05T02:18:59.105Z,83.93
2022-10-05T02:21:26.803Z,83.84
2022-10-05T02:23:57.134Z,83.17
2022-10-05T02:26:24.962Z,83.02
2022-10-05T02:28:56.351Z,82.98
2022-10-05T02:31:36.189Z,82.52
2022-10-05T02:34:26.410Z,82.74
2022-10-05T02:37:06.799Z,82.52
2022-10-05T02:39:57.609Z,82.09
2022-10-05T02:42:30.548Z,81.40
2022-10-05T02:44:58.404Z,81.53
2022-10-05T02:47:30.232Z,81.89
2022-10-05T02:50:02.721Z,80.97
2022-10-05T02:52:38.248Z,80.67
2022-10-05T02:55:17.686Z,80.56
2022-10-05T02:58:04.474Z,80.76
2022-10-05T03:00:36.286Z,81.25
2022-10-05T03:03:10.469Z,81.00
2022-10-05T03:05:40.580Z,80.64
2022-10-05T03:08:37.715Z,80.46
2022-10-05T03:11:15.247Z,80.21
2022-10-05T03:14:02.860Z,80.84
2022-10-05T03:16:34.398Z,81.77
2022-10-05T03:19:04.749Z,82.47
2022-10-05T03:21:46.203Z,82.33
2022-10-05T03:24:34.722Z,82.10
2022-10-05T03:27:07.978Z,82.12
2022-10-05T03:29:50.251Z,82.98
2022-10-05T03:32:20.550Z,83.03
2022-10-05T03:34:53.077Z,83.21
2022-10-05T03:37:20.685Z,83.74
2022-10-05T03:39:54.289Z,84.06
2022-10-05T03:42:32.126Z,84.19
2022-10-05T03:45:18.009Z,82.44
2022-10-05T03:48:03.804Z,81.61
2022-10-05T03:50:36.381Z,83.31
2022-10-05T03:53:06.477Z,83.80
2022-10-05T03:55:33.969Z,83.38
2022-10-05T03:58:06.642Z,83.00
2022-10-05T04:00:35.376Z,83.59
2022-10-05T04:03:20.449Z,84.61
2022-10-05T04:05:50.564Z,84.04
2022-10-05T04:08:30.869Z,83.85
2022-10-05T04:11:01.449Z,84.02
2022-10-05T04:13:28.533Z,85.31
2022-10-05T04:15:58.843Z,84.96
2022-10-05T04:18:29.180Z,84.44
2022-10-05T04:20:58.923Z,85.28
2022-10-05T04:23:41.855Z,85.25
2022-10-05T04:26:15.573Z,84.82
2022-10-05T04:28:52.250Z,84.63
2022-10-05T04:31:34.798Z,85.14
2022-10-05T04:34:14.210Z,86.03
2022-10-05T04:36:46.040Z,87.02
2022-10-05T04:39:22.348Z,87.99
2022-10-05T04:42:02.925Z,88.32
2022-10-05T04:44:33.940Z,88.45
2022-10-05T04:47:12.769Z,88.80
2022-10-05T04:49:55.736Z,88.42
2022-10-05T04:52:40.318Z,87.65
2022-10-05T04:55:23.064Z,87.05
2022-10-05T04:57:56.434Z,86.15
2022-10-05T05:00:25.269Z,85.46
2022-10-05T05:03:21.375Z,85.49
2022-10-05T05:06:19.538Z,86.45
2022-10-05T05:09:09.504Z,87.86
2022-10-05T05:11:43.585Z,88.49
2022-10-05T05:14:13.531Z,89.54
2022-10-05T05:16:42.593Z,88.54
2022-10-05T05:19:23.027Z,88.09
2022-10-05T05:22:13.513Z,87.88
2022-10-05T05:24:52.983Z,86.54
2022-10-05T05:27:23.397Z,86.66
2022-10-05T05:29:53.605Z,86.53
2022-10-05T05:32:24.097Z,86.76
2022-10-05T05:35:06.611Z,86.33
2022-10-05T05:37:37.998Z,85.90
2022-10-05T05:40:24.015Z,85.40
2022-10-05T05:42:54.876Z,85.60
2022-10-05T05:45:33.092Z,85.20
2022-10-05T05:48:02.950Z,84.99
2022-10-05T05:50:32.286Z,85.58
2022-10-05T05:53:15.298Z,86.39
2022-10-05T05:55:46.474Z,87.30
2022-10-05T05:58:17.411Z,87.13
2022-10-05T06:00:50.896Z,86.81
2022-10-05T06:03:24.872Z,86.15
2022-10-05T06:05:55.240Z,86.12
2022-10-05T06:08:41.273Z,86.80
2022-10-05T06:11:41.063Z,86.26
2022-10-05T06:14:14.881Z,84.89
2022-10-05T06:16:47.322Z,84.45
2022-10-05T06:19:17.628Z,83.83
2022-10-05T06:22:03.269Z,84.47
2022-10-05T06:24:38.669Z,84.31
2022-10-05T06:27:18.062Z,83.69
2022-10-05T06:29:45.218Z,83.84
2022-10-05T06:32:27.657Z,83.93
2022-10-05T06:35:01.644Z,84.78
2022-10-05T06:37:39.768Z,84.80
2022-10-05T06:40:14.502Z,84.95
2022-10-05T06:42:41.670Z,84.80
2022-10-05T06:45:38.235Z,86.04
2022-10-05T06:48:17.473Z,85.65
2022-10-05T06:51:26.619Z,84.74
2022-10-05T06:54:20.003Z,84.36
2022-10-05T06:56:56.288Z,83.22
2022-10-05T06:59:42.289Z,82.48
2022-10-05T07:02:09.528Z,81.78
2022-10-05T07:04:56.100Z,81.97
2022-10-05T07:07:29.506Z,81.77
2022-10-05T07:10:14.840Z,81.16
2022-10-05T07:13:02.791Z,80.94
2022-10-05T07:15:48.958Z,80.66
2022-10-05T07:18:21.891Z,81.47
2022-10-05T07:20:50.876Z,80.63
2022-10-05T07:23:19.795Z,79.94
2022-10-05T07:26:03.048Z,79.82
2022-10-05T07:28:33.553Z,80.42
2022-10-05T07:31:07.178Z,80.96
2022-10-05T07:33:40.767Z,81.92
2022-10-05T07:36:32.803Z,82.50
2022-10-05T07:39:03.192Z,82.86
2022-10-05T07:41:37.382Z,83.17
2022-10-05T07:44:13.079Z,83.01
2022-10-05T07:46:51.903Z,82.64
2022-10-05T07:49:26.737Z,82.75
2022-10-05T07:52:10.280Z,82.51
2022-10-05T07:54:47.544Z,81.79
2022-10-05T07:57:21.003Z,83.32
2022-10-05T07:59:56.762Z,83.21
2022-10-05T08:02:36.301Z,82.34
2022-10-05T08:05:37.141Z,81.34
2022-10-05T08:08:18.188Z,80.67
2022-10-05T08:10:46.987Z,79.94
2022-10-05T08:13:14.409Z,79.86
2022-10-05T08:15:43.305Z,78.89
2022-10-05T08:18:30.634Z,77.10
2022-10-05T08:20:58.584Z,74.83
2022-10-05T08:23:31.906Z,73.38
2022-10-05T08:26:25.416Z,72.74
2022-10-05T08:29:13.802Z,72.30
2022-10-05T08:31:43.017Z,71.86
2022-10-05T08:34:21.041Z,72.25
2022-10-05T08:36:51.611Z,72.08
2022-10-05T08:39:21.498Z,71.90
2022-10-05T08:41:59.824Z,71.22
2022-10-05T08:44:45.337Z,70.84
2022-10-05T08:47:21.554Z,71.57
2022-10-05T08:50:07.729Z,71.83
2022-10-05T08:52:41.508Z,71.43
2022-10-05T08:55:31.070Z,71.32
2022-10-05T08:58:07.985Z,72.37
2022-10-05T09:00:53.928Z,72.36
2022-10-05T09:03:52.917Z,73.44
2022-10-05T09:06:45.359Z,71.63
2022-10-05T09:09:18.702Z,71.39
2022-10-05T09:11:55.458Z,71.54
2022-10-05T09:14:52.650Z,72.15
2022-10-05T09:17:50.043Z,71.62
2022-10-05T09:20:22.866Z,71.07
2022-10-05T09:23:08.531Z,71.26
2022-10-05T09:25:46.938Z,71.97
2022-10-05T09:28:20.241Z,71.83
2022-10-05T09:30:50.546Z,71.48
2022-10-05T09:33:30.036Z,71.13
2022-10-05T09:36:15.984Z,72.01
2022-10-05T09:39:01.959Z,72.79
2022-10-05T09:41:44.691Z,72.32
2022-10-05T09:44:18.853Z,72.58
2022-10-05T09:46:52.304Z,72.74
2022-10-05T09:49:19.452Z,73.74
2022-10-05T09:51:46.827Z,74.01
2022-10-05T09:54:17.235Z,73.97
2022-10-05T09:56:57.168Z,73.98
2022-10-05T09:59:39.626Z,74.27
2022-10-05T10:02:06.923Z,73.15
2022-10-05T10:04:34.361Z,71.68
2022-10-05T10:07:17.184Z,69.81
2022-10-05T10:09:56.640Z,70.36
2022-10-05T10:12:26.744Z,69.61
2022-10-05T10:15:01.929Z,68.88
2022-10-05T10:17:42.431Z,67.63
2022-10-05T10:20:26.121Z,67.49
2022-10-05T10:23:12.020Z,67.28
2022-10-05T10:25:48.444Z,67.38
2022-10-05T10:28:28.178Z,68.17
2022-10-05T10:31:14.499Z,69.07
2022-10-05T10:33:47.917Z,68.72
2022-10-05T10:36:34.116Z,68.56
2022-10-05T10:39:17.622Z,69.21
2022-10-05T10:41:54.089Z,69.80
2022-10-05T10:44:33.434Z,69.71
2022-10-05T10:47:13.316Z,69.50
2022-10-05T10:49:56.141Z,69.53
2022-10-05T10:52:42.105Z,69.32
2022-10-05T10:55:27.643Z,69.63
2022-10-05T10:57:54.785Z,69.52
2022-10-05T11:00:27.304Z,69.58
2022-10-05T11:03:13.417Z,68.99
2022-10-05T11:05:55.174Z,67.97
2022-10-05T11:08:37.410Z,68.55
2022-10-05T11:11:23.447Z,68.60
2022-10-05T11:14:10.394Z,69.28
2022-10-05T11:16:50.091Z,68.72
2022-10-05T11:19:40.452Z,69.11
2022-10-05T11:22:33.510Z,69.17
2022-10-05T11:25:19.869Z,69.69
2022-10-05T11:27:59.879Z,69.10
2022-10-05T11:30:36.394Z,69.80
2022-10-05T11:33:11.319Z,70.14
2022-10-05T11:35:38.478Z,70.63
2022-10-05T11:38:08.923Z,70.69
2022-10-05T11:40:56.108Z,70.62
2022-10-05T11:43:26.217Z,70.50
2022-10-05T11:46:12.449Z,70.51
2022-10-05T11:48:42.883Z,70.57
2022-10-05T11:51:27.769Z,70.63
2022-10-05T11:53:57.618Z,71.31
2022-10-05T11:56:50.781Z,71.23
2022-10-05T11:59:34.930Z,70.93
2022-10-05T12:02:20.557Z,70.92
2022-10-05T12:04:50.969Z,71.20
2022-10-05T12:07:18.160Z,71.19
2022-10-05T12:10:07.315Z,70.98
2022-10-05T12:12:44.694Z,70.53
2022-10-05T12:15:18.988Z,70.24
2022-10-05T12:18:08.270Z,70.10
2022-10-05T12:20:40.754Z,70.22
2022-10-05T12:23:15.084Z,69.60
2022-10-05T12:25:45.598Z,69.58
2022-10-05T12:28:16.151Z,68.80
2022-10-05T12:31:13.006Z,69.45
2022-10-05T12:33:40.262Z,68.84
2022-10-05T12:36:15.459Z,68.59
2022-10-05T12:38:45.716Z,68.36
2022-10-05T12:41:16.002Z,67.75
2022-10-05T12:43:43.203Z,68.01
2022-10-05T12:46:19.732Z,68.42
2022-10-05T12:48:56.231Z,68.96
2022-10-05T12:51:35.731Z,68.85
2022-10-05T12:54:02.950Z,68.85
2022-10-05T12:56:37.579Z,68.36
2022-10-05T12:59:14.435Z,68.33
2022-10-05T13:01:43.784Z,67.46
2022-10-05T13:04:31.211Z,68.34
2022-10-05T13:07:07.580Z,67.81
2022-10-05T13:09:34.812Z,67.94
2022-10-05T13:12:13.105Z,67.82
2022-10-05T13:14:53.735Z,67.77
2022-10-05T13:17:28.729Z,67.06
2022-10-05T13:20:03.708Z,66.59
2022-10-05T13:22:39.695Z,66.67
2022-10-05T13:25:27.151Z,67.18
2022-10-05T13:27:59.895Z,66.53
2022-10-05T13:30:27.502Z,66.73
2022-10-05T13:33:04.448Z,66.74
2022-10-05T13:35:31.586Z,67.20
2022-10-05T13:38:17.523Z,67.62
2022-10-05T13:41:08.467Z,67.24
2022-10-05T13:43:55.141Z,66.30
2022-10-05T13:46:22.271Z,66.70
2022-10-05T13:48:55.729Z,67.19
2022-10-05T13:51:46.037Z,66.10
2022-10-05T13:54:36.346Z,67.18
2022-10-05T13:57:17.120Z,67.15
2022-10-05T13:59:50.446Z,67.18
2022-10-05T14:02:20.799Z,66.48
2022-10-05T14:04:49.155Z,66.15
2022-10-05T14:07:22.345Z,65.60
2022-10-05T14:09:52.489Z,65.66
2022-10-05T14:12:21.426Z,65.98
2022-10-05T14:14:52.759Z,65.89
2022-10-05T14:17:39.885Z,66.93
2022-10-05T14:20:36.740Z,66.01
2022-10-05T14:23:11.267Z,66.27
2022-10-05T14:25:53.741Z,66.98
2022-10-05T14:28:34.593Z,66.28
2022-10-05T14:31:27.242Z,65.98
2022-10-05T14:33:54.815Z,66.05
2022-10-05T14:36:40.281Z,65.67
2022-10-05T14:39:12.266Z,65.89
2022-10-05T14:41:48.015Z,66.13
2022-10-05T14:44:15.568Z,66.71
2022-10-05T14:46:54.628Z,66.66
2022-10-05T14:49:36.538Z,67.32
2022-10-05T14:52:23.167Z,66.68
2022-10-05T14:55:06.015Z,66.83
2022-10-05T14:57:34.119Z,66.06
2022-10-05T15:00:04.119Z,65.58
2022-10-05T15:02:37.600Z,65.56
2022-10-05T15:05:15.246Z,66.08
2022-10-05T15:07:43.968Z,66.54
2022-10-05T15:10:27.010Z,66.55
2022-10-05T15:12:55.478Z,66.41
2022-10-05T15:15:41.250Z,66.83
2022-10-05T15:18:31.650Z,67.30
2022-10-05T15:21:09.037Z,67.22
2022-10-05T15:23:42.781Z,67.35
2022-10-05T15:26:10.179Z,67.89
2022-10-05T15:28:55.811Z,67.38
2022-10-05T15:31:22.936Z,67.45
2022-10-05T15:33:59.328Z,67.56
2022-10-05T15:36:45.296Z,67.28
2022-10-05T15:39:25.335Z,67.04
2022-10-05T15:41:55.440Z,67.47
2022-10-05T15:44:22.496Z,67.81
2022-10-05T15:46:57.695Z,67.34
2022-10-05T15:49:34.374Z,67.68
2022-10-05T15:52:23.353Z,68.06
2022-10-05T15:55:09.284Z,67.12
2022-10-05T15:57:41.288Z,67.42
2022-10-05T16:00:12.862Z,67.53
2022-10-05T16:02:43.091Z,67.58
2022-10-05T16:05:42.641Z,67.97
2022-10-05T16:08:35.130Z,68.97
2022-10-05T16:11:05.257Z,69.49
2022-10-05T16:13:39.870Z,68.96
2022-10-05T16:16:08.056Z,69.29
2022-10-05T16:19:11.317Z,69.33
2022-10-05T16:21:47.569Z,68.54
2022-10-05T16:24:26.042Z,68.65
2022-10-05T16:26:53.204Z,68.47
2022-10-05T16:29:26.298Z,68.67
2022-10-05T16:32:05.792Z,68.86
2022-10-05T16:34:41.852Z,68.93
2022-10-05T16:37:28.189Z,68.60
2022-10-05T16:39:58.523Z,68.76
2022-10-05T16:42:34.973Z,68.67
2022-10-05T16:45:06.826Z,69.20
2022-10-05T16:47:47.489Z,69.58
2022-10-05T16:50:17.455Z,69.91
2022-10-05T16:52:47.129Z,70.01
2022-10-05T16:55:19.993Z,70.21
2022-10-05T16:57:51.442Z,70.44
2022-10-05T17:00:30.761Z,70.90
2022-10-05T17:03:16.668Z,70.85
2022-10-05T17:05:55.148Z,71.08
2022-10-05T17:08:34.224Z,71.23
2022-10-05T17:11:06.437Z,70.83
2022-10-05T17:13:48.906Z,70.57
2022-10-05T17:16:18.985Z,70.66
2022-10-05T17:19:04.633Z,71.28
2022-10-05T17:21:38.386Z,71.73
2022-10-05T17:24:11.669Z,71.77
2022-10-05T17:26:57.505Z,71.56
2022-10-05T17:29:28.020Z,71.74
2022-10-05T17:32:00.029Z,71.95
2022-10-05T17:34:34.312Z,72.10
2022-10-05T17:37:20.314Z,72.55
2022-10-05T17:39:49.379Z,72.29
2022-10-05T17:42:31.658Z,72.48
2022-10-05T17:45:13.773Z,72.72
2022-10-05T17:48:01.279Z,72.86
2022-10-05T17:54:03.239Z,72.85
2022-10-05T17:56:55.924Z,73.22
2022-10-05T17:59:35.376Z,73.83
2022-10-05T18:02:21.721Z,74.18
2022-10-05T18:05:12.424Z,74.91
2022-10-05T18:07:40.377Z,75.29
2022-10-05T18:10:15.387Z,75.97
2022-10-05T18:12:50.708Z,76.34
2022-10-05T18:15:24.105Z,76.87
2022-10-05T18:17:54.682Z,77.31
2022-10-05T18:20:25.513Z,77.61
2022-10-05T18:22:54.300Z,77.54
2022-10-05T18:25:38.256Z,77.46
2022-10-05T18:28:08.406Z,77.89
2022-10-05T18:30:44.869Z,78.16
2022-10-05T18:33:29.862Z,78.85
2022-10-05T18:36:03.335Z,79.20
2022-10-05T18:38:41.028Z,79.09
2022-10-05T18:41:09.077Z,79.43
2022-10-05T18:43:36.252Z,79.40
2022-10-05T18:46:09.585Z,79.41
2022-10-05T18:48:57.682Z,79.63
2022-10-05T18:51:29.946Z,79.61
2022-10-05T18:54:12.630Z,79.81
2022-10-05T18:56:49.513Z,80.74
2022-10-05T18:59:39.660Z,81.34
2022-10-05T19:02:11.229Z,82.26
2022-10-05T19:04:47.307Z,83.11
2022-10-05T19:07:17.275Z,83.43
2022-10-05T19:10:00.910Z,83.81
2022-10-05T19:12:41.353Z,84.19
2022-10-05T19:15:21.060Z,85.30
2022-10-05T19:17:58.671Z,85.78
2022-10-05T19:20:25.805Z,85.91
2022-10-05T19:22:52.879Z,85.60
2022-10-05T19:25:29.339Z,85.99
2022-10-05T19:28:15.883Z,86.12
2022-10-05T19:31:01.309Z,86.25
2022-10-05T19:33:28.750Z,85.25
2022-10-05T19:35:58.979Z,85.20
2022-10-05T19:38:40.515Z,85.18
2022-10-05T19:41:14.437Z,85.05
2022-10-05T19:44:02.595Z,85.21
2022-10-05T19:46:30.986Z,85.66
2022-10-05T19:49:00.164Z,85.44
2022-10-05T19:51:29.983Z,85.43
2022-10-05T19:54:00.446Z,85.71
2022-10-05T19:56:32.686Z,85.85
2022-10-05T19:59:10.905Z,85.97
2022-10-05T20:01:42.268Z,86.03
2022-10-05T20:04:10.310Z,85.50
2022-10-05T20:06:40.143Z,85.65
2022-10-05T20:09:21.506Z,85.25
2022-10-05T20:11:50.177Z,84.90
2022-10-05T20:14:18.870Z,85.02
2022-10-05T20:17:04.885Z,85.37
2022-10-05T20:19:51.436Z,85.37
2022-10-05T20:22:36.428Z,85.22
2022-10-05T20:25:10.759Z,85.14
2022-10-05T20:27:51.542Z,85.05
2022-10-05T20:30:20.209Z,85.65
2022-10-05T20:33:01.443Z,85.42
2022-10-05T20:35:32.403Z,85.32
2022-10-05T20:38:00.083Z,85.49
2022-10-05T20:40:29.183Z,85.82
2022-10-05T20:42:57.360Z,85.83
2022-10-05T20:45:24.782Z,85.81
2022-10-05T20:47:52.439Z,85.96
2022-10-05T20:50:22.298Z,86.25
2022-10-05T20:52:49.814Z,86.36
2022-10-05T20:55:17.092Z,87.61
2022-10-05T20:57:46.166Z,87.81
2022-10-05T21:00:13.871Z,87.84
2022-10-05T21:02:41.073Z,87.55
2022-10-05T21:05:08.674Z,87.96
2022-10-05T21:07:37.001Z,87.76
2022-10-05T21:10:04.416Z,88.26
2022-10-05T21:12:34.099Z,87.71
2022-10-05T21:15:04.775Z,87.70
2022-10-05T21:17:32.979Z,87.76
2022-10-05T21:20:00.152Z,87.61
2022-10-05T21:22:27.374Z,87.97
2022-10-05T21:24:55.815Z,87.84
2022-10-05T21:27:23.951Z,87.77
2022-10-05T21:29:51.677Z,88.02
2022-10-05T21:32:18.844Z,88.22
2022-10-05T21:34:46.282Z,88.18
2022-10-05T21:37:15.445Z,88.67
2022-10-05T21:39:44.998Z,89.11
2022-10-05T21:42:12.261Z,89.12
2022-10-05T21:44:40.198Z,88.55
2022-10-05T21:47:25.899Z,88.66
2022-10-05T21:49:53.105Z,89.04
2022-10-05T21:52:20.591Z,88.52
2022-10-05T21:54:47.941Z,89.06
2022-10-05T21:57:15.441Z,89.51
2022-10-05T21:59:43.104Z,89.02
2022-10-05T22:02:10.285Z,89.15
2022-10-05T22:04:37.527Z,89.22
2022-10-05T22:07:18.595Z,89.44
2022-10-05T22:09:49.440Z,90.24
2022-10-05T22:12:17.113Z,89.71
2022-10-05T22:14:44.338Z,89.17
2022-10-05T22:17:20.703Z,88.91
2022-10-05T22:19:47.873Z,88.69
2022-10-05T22:22:15.050Z,88.74
2022-10-05T22:24:42.186Z,88.83
2022-10-05T22:27:09.578Z,88.84
2022-10-05T22:29:36.887Z,89.19
2022-10-05T22:32:04.215Z,89.46
2022-10-05T22:34:31.391Z,89.47
2022-10-05T22:36:58.943Z,89.69
2022-10-05T22:39:26.123Z,89.86
2022-10-05T22:41:53.317Z,90.33
2022-10-05T22:44:20.765Z,90.88
2022-10-05T22:46:48.128Z,91.02
2022-10-05T22:49:15.292Z,91.03
2022-10-05T22:51:42.400Z,91.32
2022-10-05T22:54:09.573Z,91.77
2022-10-05T22:56:36.732Z,91.17
2022-10-05T22:59:03.938Z,91.21
2022-10-05T23:01:31.177Z,91.36
2022-10-05T23:03:58.540Z,90.81
2022-10-05T23:06:26.677Z,91.10
2022-10-05T23:08:54.099Z,91.65
2022-10-05T23:11:23.692Z,92.08
2022-10-05T23:13:52.234Z,92.46
2022-10-05T23:16:20.540Z,91.66
2022-10-05T23:18:48.867Z,91.22
2022-10-05T23:21:16.654Z,91.48
2022-10-05T23:23:47.385Z,91.95
2022-10-05T23:26:15.272Z,92.44
2022-10-05T23:28:46.589Z,92.58
2022-10-05T23:31:14.925Z,93.02
2022-10-05T23:33:42.143Z,92.84
2022-10-05T23:36:12.008Z,92.35
2022-10-05T23:38:39.239Z,92.21
2022-10-05T23:41:07.576Z,92.43
2022-10-05T23:43:35.144Z,92.30
2022-10-05T23:46:05.586Z,92.41
2022-10-05T23:48:33.108Z,92.60
2022-10-05T23:51:00.729Z,92.89
2022-10-05T23:53:27.855Z,92.50
2022-10-05T23:55:55.550Z,91.95
2022-10-05T23:58:22.876Z,92.45
